Terminal Aerodrome Forecast
Issued by NWS

Home | Current Version | Previous Version | Text Only | Print | Product List | Glossary On
Versions: 1 2 3 4 5 6 7 8 9 10 11 12 13 14 15 16 17 18 19 20 21 22 23 24 25 26 27 28 29
986
FTUS43 KDLH 250908 AAA
TAFHIB
TAF AMD
KHIB 250908Z 2509/2606 34005KT 4SM -SHRA SCT008 BKN015 OVC050
      TEMPO 2510/2513 -RA BKN005
     FM251500 31007KT 6SM -SHRA OVC008
     FM251800 32011KT 5SM -RA OVC015
     FM252300 34012G19KT P6SM OVC025=

USA.gov is the U.S. government's official web portal to all federal, state and local government web resources and services.